createdAt,value
2022-12-03T00:03:11.155Z,101729.58
2022-12-03T00:18:14.431Z,101730.75
2022-12-03T00:33:17.647Z,101714.55
2022-12-03T00:48:20.813Z,101709.64
2022-12-03T01:03:24.195Z,101703.98
2022-12-03T01:18:27.430Z,101696.31
2022-12-03T01:33:30.582Z,101692.11
2022-12-03T01:48:38.032Z,101683.00
2022-12-03T02:03:41.460Z,101673.39
2022-12-03T02:18:44.793Z,101669.59
2022-12-03T02:33:48.127Z,101662.38
2022-12-03T02:48:51.356Z,101656.59
2022-12-03T03:03:55.246Z,101654.98
2022-12-03T03:18:58.973Z,101654.63
2022-12-03T03:34:02.174Z,101651.52
2022-12-03T03:49:06.525Z,101639.75
2022-12-03T04:04:19.531Z,101629.92
2022-12-03T04:19:22.713Z,101626.17
2022-12-03T04:34:44.745Z,101621.52
2022-12-03T04:49:50.423Z,101618.23
2022-12-03T05:04:53.802Z,101609.44
2022-12-03T05:20:15.933Z,101609.23
2022-12-03T05:35:19.091Z,101606.37
2022-12-03T05:50:25.154Z,101605.85
2022-12-03T06:05:28.386Z,101600.30
2022-12-03T06:20:31.677Z,101601.55
2022-12-03T06:35:34.834Z,101601.27
2022-12-03T06:50:38.112Z,101599.71
2022-12-03T07:05:41.432Z,101592.06
2022-12-03T07:20:44.608Z,101586.73
2022-12-03T07:35:47.832Z,101583.52
2022-12-03T07:50:51.989Z,101585.00
2022-12-03T08:05:55.292Z,101591.08
2022-12-03T08:20:58.580Z,101595.33
2022-12-03T08:36:23.316Z,101593.39
2022-12-03T08:51:27.459Z,101576.72
2022-12-03T09:06:30.846Z,101576.52
2022-12-03T09:21:34.052Z,101575.01
2022-12-03T09:36:37.200Z,101570.77
2022-12-03T09:51:40.488Z,101565.88
2022-12-03T10:06:46.032Z,101561.45
2022-12-03T10:21:49.691Z,101551.98
2022-12-03T10:37:19.469Z,101542.31
2022-12-03T10:52:25.844Z,101537.52
2022-12-03T11:07:31.171Z,101538.23
2022-12-03T11:22:43.819Z,101537.14
2022-12-03T11:37:47.244Z,101512.87
2022-12-03T11:52:55.880Z,101493.00
2022-12-03T12:08:01.271Z,101476.44
2022-12-03T12:23:22.876Z,101465.66
2022-12-03T12:38:28.518Z,101470.27
2022-12-03T12:53:33.690Z,101465.30
2022-12-03T13:08:44.488Z,101456.42
2022-12-03T13:23:49.654Z,101459.52
2022-12-03T13:38:53.634Z,101461.86
2022-12-03T13:53:59.666Z,101470.52
2022-12-03T14:09:03.156Z,101475.09
2022-12-03T14:24:07.235Z,101465.66
2022-12-03T14:39:10.979Z,101453.77
2022-12-03T14:54:14.148Z,101450.94
2022-12-03T15:09:17.604Z,101446.23
2022-12-03T15:24:21.018Z,101447.83
2022-12-03T15:39:24.297Z,101456.16
2022-12-03T15:54:27.436Z,101463.02
2022-12-03T16:09:30.686Z,101458.37
2022-12-03T16:24:33.854Z,101456.75
2022-12-03T16:39:37.656Z,101461.08
2022-12-03T16:54:41.016Z,101467.47
2022-12-03T17:09:45.344Z,101476.16
2022-12-03T17:24:48.530Z,101471.79
2022-12-03T17:39:52.108Z,101465.16
2022-12-03T17:55:10.921Z,101467.88
2022-12-03T18:10:17.515Z,101468.13
2022-12-03T18:25:20.676Z,101461.50
2022-12-03T18:40:27.355Z,101455.77
2022-12-03T18:55:34.705Z,101451.70
2022-12-03T19:10:38.061Z,101450.84
2022-12-03T19:25:41.255Z,101453.45
2022-12-03T19:40:44.893Z,101465.96
2022-12-03T19:55:48.307Z,101479.87
2022-12-03T20:10:51.807Z,101482.98
2022-12-03T20:25:55.320Z,101481.48
2022-12-03T20:41:06.872Z,101477.56
2022-12-03T20:56:10.835Z,101457.45
2022-12-03T21:11:18.741Z,101457.71
2022-12-03T21:26:22.533Z,101469.39
2022-12-03T21:41:26.492Z,101463.73
2022-12-03T21:56:32.118Z,101472.66
2022-12-03T22:11:35.536Z,101470.80
2022-12-03T22:26:39.757Z,101461.45
2022-12-03T22:41:42.961Z,101459.91
2022-12-03T22:56:46.259Z,101456.59
2022-12-03T23:11:49.709Z,101457.10
2022-12-03T23:34:55.164Z,101444.80
2022-12-03T23:49:58.570Z,101449.02
